createdAt,value
2022-09-07T00:00:16.211Z,1.55
2022-09-07T00:02:44.114Z,1.80
2022-09-07T00:05:11.962Z,1.75
2022-09-07T00:07:39.786Z,1.70
2022-09-07T00:10:10.161Z,2.03
2022-09-07T00:12:38.026Z,2.55
2022-09-07T00:15:09.357Z,1.75
2022-09-07T00:17:37.219Z,1.92
2022-09-07T00:20:07.122Z,2.58
2022-09-07T00:22:35.094Z,2.00
2022-09-07T00:25:02.978Z,2.17
2022-09-07T00:27:32.582Z,2.22
2022-09-07T00:30:00.512Z,2.50
2022-09-07T00:32:28.349Z,1.90
2022-09-07T00:34:56.213Z,1.70
2022-09-07T00:37:24.418Z,2.05
2022-09-07T00:39:52.870Z,1.90
2022-09-07T00:42:21.542Z,2.22
2022-09-07T00:45:13.616Z,2.28
2022-09-07T00:47:48.754Z,2.30
2022-09-07T00:50:22.955Z,2.22
2022-09-07T00:52:58.431Z,1.88
2022-09-07T00:55:27.557Z,2.00
2022-09-07T00:57:57.339Z,2.47
2022-09-07T01:00:27.308Z,2.00
2022-09-07T01:02:57.725Z,2.20
2022-09-07T01:05:30.410Z,2.05
2022-09-07T01:07:59.131Z,2.60
2022-09-07T01:10:31.600Z,2.53
2022-09-07T01:12:59.709Z,2.25
2022-09-07T01:15:44.550Z,2.20
2022-09-07T01:18:20.400Z,2.38
2022-09-07T01:21:11.155Z,2.47
2022-09-07T01:24:14.602Z,2.47
2022-09-07T01:27:09.671Z,2.40
2022-09-07T01:29:46.917Z,2.47
2022-09-07T01:32:24.865Z,3.37
2022-09-07T01:34:55.248Z,2.78
2022-09-07T01:37:29.510Z,2.50
2022-09-07T01:40:07.560Z,2.10
2022-09-07T01:45:12.951Z,2.30
2022-09-07T01:47:46.189Z,2.42
2022-09-07T01:50:19.807Z,2.45
2022-09-07T01:52:53.875Z,2.50
2022-09-07T01:55:25.798Z,3.55
2022-09-07T01:57:59.230Z,2.90
2022-09-07T02:00:28.770Z,2.75
2022-09-07T02:03:01.593Z,3.00
2022-09-07T02:05:34.522Z,3.03
2022-09-07T02:08:08.608Z,2.63
2022-09-07T02:10:39.811Z,2.63
2022-09-07T02:13:11.323Z,2.40
2022-09-07T02:15:46.743Z,2.85
2022-09-07T02:18:15.409Z,2.92
2022-09-07T02:20:48.371Z,2.83
2022-09-07T02:23:20.946Z,3.22
2022-09-07T02:25:53.603Z,2.67
2022-09-07T02:28:27.347Z,2.50
2022-09-07T02:30:56.656Z,3.40
2022-09-07T02:33:25.017Z,3.53
2022-09-07T02:35:53.255Z,2.88
2022-09-07T02:38:21.488Z,2.53
2022-09-07T02:40:53.081Z,2.83
2022-09-07T02:43:22.793Z,2.95
2022-09-07T02:46:08.297Z,2.72
2022-09-07T02:48:46.442Z,2.63
2022-09-07T02:53:59.926Z,2.53
2022-09-07T02:56:42.826Z,2.65
2022-09-07T02:59:21.949Z,2.97
2022-09-07T03:02:00.843Z,3.13
2022-09-07T03:04:41.056Z,3.28
2022-09-07T03:07:13.231Z,3.13
2022-09-07T03:09:45.533Z,3.15
2022-09-07T03:12:13.663Z,3.20
2022-09-07T03:14:43.556Z,2.63
2022-09-07T03:17:13.809Z,3.53
2022-09-07T03:19:41.751Z,2.92
2022-09-07T03:22:09.674Z,2.97
2022-09-07T03:24:37.736Z,3.13
2022-09-07T03:27:05.678Z,3.65
2022-09-07T03:29:33.545Z,2.90
2022-09-07T03:32:01.419Z,3.22
2022-09-07T03:34:31.320Z,3.30
2022-09-07T03:36:59.247Z,3.15
2022-09-07T03:39:28.459Z,3.40
2022-09-07T03:41:56.361Z,3.28
2022-09-07T03:44:24.278Z,3.72
2022-09-07T03:46:52.202Z,3.70
2022-09-07T03:49:20.233Z,3.28
2022-09-07T03:51:49.393Z,3.45
2022-09-07T03:54:17.254Z,3.63
2022-09-07T03:56:45.107Z,3.63
2022-09-07T03:59:13.014Z,3.85
2022-09-07T04:01:41.005Z,3.42
2022-09-07T04:04:08.983Z,3.20
2022-09-07T04:06:36.998Z,3.53
2022-09-07T04:09:08.421Z,3.78
2022-09-07T04:11:36.275Z,3.45
2022-09-07T04:14:04.459Z,3.10
2022-09-07T04:16:32.369Z,3.80
2022-09-07T04:19:00.485Z,3.83
2022-09-07T04:21:30.605Z,4.03
2022-09-07T04:23:59.052Z,3.67
2022-09-07T04:26:31.028Z,3.10
2022-09-07T04:28:59.266Z,2.95
2022-09-07T04:31:27.886Z,3.13
2022-09-07T04:33:57.156Z,3.13
2022-09-07T04:36:25.706Z,3.40
2022-09-07T04:38:57.728Z,3.35
2022-09-07T04:41:25.579Z,3.33
2022-09-07T04:43:56.801Z,3.47
2022-09-07T04:46:26.468Z,3.05
2022-09-07T04:48:56.721Z,2.53
2022-09-07T04:51:26.778Z,3.60
2022-09-07T04:53:56.486Z,3.28
2022-09-07T04:56:25.124Z,2.95
2022-09-07T04:58:55.188Z,3.05
2022-09-07T05:01:25.212Z,3.10
2022-09-07T05:03:53.469Z,2.42
2022-09-07T05:06:22.832Z,2.92
2022-09-07T05:08:52.007Z,3.13
2022-09-07T05:11:26.215Z,3.90
2022-09-07T05:13:58.302Z,2.88
2022-09-07T05:16:27.649Z,3.22
2022-09-07T05:18:57.337Z,3.35
2022-09-07T05:21:27.346Z,3.15
2022-09-07T05:23:56.665Z,3.30
2022-09-07T05:26:26.865Z,3.08
2022-09-07T05:31:44.083Z,3.47
2022-09-07T05:37:00.063Z,2.92
2022-09-07T05:39:28.344Z,3.47
2022-09-07T05:41:56.403Z,2.80
2022-09-07T05:47:13.708Z,2.90
2022-09-07T05:49:41.613Z,3.08
2022-09-07T05:52:09.510Z,3.33
2022-09-07T05:54:37.397Z,3.50
2022-09-07T05:57:06.253Z,3.10
2022-09-07T05:59:34.528Z,2.65
2022-09-07T06:02:02.596Z,2.95
2022-09-07T06:04:32.122Z,3.38
2022-09-07T06:07:20.608Z,2.70
2022-09-07T06:12:36.060Z,2.80
2022-09-07T06:15:05.326Z,2.63
2022-09-07T06:17:33.189Z,3.30
2022-09-07T06:20:02.849Z,3.20
2022-09-07T06:22:31.323Z,2.47
2022-09-07T06:24:59.728Z,2.22
2022-09-07T06:27:27.610Z,3.28
2022-09-07T06:29:55.723Z,3.50
2022-09-07T06:35:14.527Z,2.40
2022-09-07T06:37:42.625Z,2.67
2022-09-07T06:40:11.845Z,2.65
2022-09-07T06:42:39.872Z,3.03
2022-09-07T06:45:10.087Z,3.00
2022-09-07T06:47:38.065Z,2.85
2022-09-07T06:50:06.439Z,2.58
2022-09-07T06:55:25.716Z,2.60
2022-09-07T06:57:54.395Z,2.58
2022-09-07T07:00:22.536Z,2.55
2022-09-07T07:02:50.435Z,2.50
2022-09-07T07:05:18.301Z,2.58
2022-09-07T07:07:47.536Z,2.55
2022-09-07T07:10:15.555Z,2.72
2022-09-07T07:15:10.675Z,2.30
2022-09-07T07:17:38.539Z,2.70
2022-09-07T07:20:07.531Z,2.05
2022-09-07T07:22:50.713Z,2.10
2022-09-07T07:25:20.653Z,2.63
2022-09-07T07:27:49.651Z,2.53
2022-09-07T07:30:18.907Z,2.80
2022-09-07T07:32:47.567Z,2.45
2022-09-07T07:35:16.016Z,2.40
2022-09-07T07:37:43.882Z,2.03
2022-09-07T07:42:48.045Z,2.35
2022-09-07T07:48:04.524Z,3.03
2022-09-07T07:50:33.245Z,3.00
2022-09-07T07:55:49.944Z,3.53
2022-09-07T07:58:19.548Z,2.53
2022-09-07T08:00:56.043Z,2.33
2022-09-07T08:03:26.112Z,2.40
2022-09-07T08:05:54.590Z,2.40
2022-09-07T08:08:22.938Z,2.45
2022-09-07T08:10:51.448Z,2.85
2022-09-07T08:13:21.326Z,2.30
2022-09-07T08:15:49.476Z,2.75
2022-09-07T08:18:18.463Z,2.30
2022-09-07T08:20:46.290Z,2.72
2022-09-07T08:23:14.676Z,2.30
2022-09-07T08:25:50.524Z,2.30
2022-09-07T08:28:19.808Z,2.83
2022-09-07T08:30:47.723Z,2.55
2022-09-07T08:33:15.820Z,2.47
2022-09-07T08:35:43.728Z,2.15
2022-09-07T08:38:11.803Z,2.50
2022-09-07T08:40:40.080Z,2.15
2022-09-07T08:43:18.951Z,2.50
2022-09-07T08:45:52.515Z,2.08
2022-09-07T08:48:29.676Z,2.58
2022-09-07T08:51:04.496Z,1.98
2022-09-07T08:53:33.023Z,2.80
2022-09-07T08:56:05.510Z,2.38
2022-09-07T08:58:49.301Z,2.40
2022-09-07T09:01:37.446Z,1.95
2022-09-07T09:04:19.358Z,1.98
2022-09-07T09:06:58.713Z,2.17
2022-09-07T09:09:34.726Z,2.45
2022-09-07T09:12:12.901Z,1.80
2022-09-07T09:14:52.913Z,2.20
2022-09-07T09:17:31.256Z,1.73
2022-09-07T09:20:09.211Z,1.92
2022-09-07T09:22:37.215Z,2.58
2022-09-07T09:25:16.943Z,2.53
2022-09-07T09:27:44.858Z,1.95
2022-09-07T09:30:15.321Z,1.85
2022-09-07T09:32:46.464Z,1.35
2022-09-07T09:35:17.530Z,1.70
2022-09-07T09:37:45.682Z,2.00
2022-09-07T09:40:22.818Z,2.30
2022-09-07T09:43:01.804Z,2.20
2022-09-07T09:46:12.240Z,1.80
2022-09-07T09:48:23.557Z,2.30
2022-09-07T09:53:54.424Z,2.30
2022-09-07T09:56:23.107Z,2.05
2022-09-07T09:59:56.847Z,1.88
2022-09-07T10:04:32.949Z,1.80
2022-09-07T10:07:21.436Z,2.53
2022-09-07T10:09:51.859Z,2.03
2022-09-07T10:12:28.088Z,2.28
2022-09-07T10:14:56.661Z,2.65
2022-09-07T10:17:30.516Z,1.95
2022-09-07T10:20:03.544Z,1.90
2022-09-07T10:22:35.222Z,1.80
2022-09-07T10:25:04.812Z,1.80
2022-09-07T10:27:35.639Z,2.78
2022-09-07T10:30:07.616Z,1.77
2022-09-07T10:32:54.063Z,1.55
2022-09-07T10:35:29.472Z,1.73
2022-09-07T10:38:09.788Z,2.33
2022-09-07T10:40:45.940Z,1.77
2022-09-07T10:43:36.198Z,2.17
2022-09-07T10:49:22.274Z,2.78
2022-09-07T10:52:00.894Z,1.92
2022-09-07T10:54:38.356Z,1.45
2022-09-07T10:57:27.175Z,1.73
2022-09-07T11:00:11.111Z,2.88
2022-09-07T11:06:02.129Z,1.60
2022-09-07T11:14:25.369Z,1.67
2022-09-07T11:17:00.235Z,1.20
2022-09-07T11:19:36.379Z,1.67
2022-09-07T11:22:16.025Z,1.92
2022-09-07T11:27:43.467Z,1.40
2022-09-07T11:30:20.790Z,1.67
2022-09-07T11:32:58.510Z,1.73
2022-09-07T11:35:35.124Z,1.90
2022-09-07T11:38:13.818Z,1.65
2022-09-07T11:40:49.632Z,1.35
2022-09-07T11:43:22.498Z,1.48
2022-09-07T11:45:55.032Z,1.38
2022-09-07T11:48:31.928Z,1.58
2022-09-07T11:51:04.162Z,1.80
2022-09-07T11:53:35.271Z,1.52
2022-09-07T11:56:11.127Z,1.50
2022-09-07T11:58:58.810Z,1.30
2022-09-07T12:01:39.211Z,1.50
2022-09-07T12:04:29.375Z,1.83
2022-09-07T12:07:36.187Z,1.35
2022-09-07T12:10:19.383Z,1.70
2022-09-07T12:13:03.275Z,1.80
2022-09-07T12:15:38.619Z,1.20
2022-09-07T12:18:18.692Z,2.28
2022-09-07T12:20:48.060Z,1.40
2022-09-07T12:23:28.403Z,1.60
2022-09-07T12:26:35.513Z,1.52
2022-09-07T12:29:32.020Z,1.65
2022-09-07T12:34:54.482Z,1.40
2022-09-07T12:37:40.306Z,1.25
2022-09-07T12:40:50.749Z,1.48
2022-09-07T12:43:52.225Z,1.42
2022-09-07T12:46:46.304Z,1.40
2022-09-07T12:49:47.052Z,1.70
2022-09-07T12:52:45.618Z,1.30
2022-09-07T12:58:41.354Z,1.38
2022-09-07T13:01:34.544Z,1.35
2022-09-07T13:04:27.830Z,1.30
2022-09-07T13:07:08.714Z,1.50
2022-09-07T13:09:37.666Z,1.10
2022-09-07T13:15:33.951Z,1.30
2022-09-07T13:18:04.725Z,1.20
2022-09-07T13:20:37.658Z,1.35
2022-09-07T13:23:24.022Z,1.20
2022-09-07T13:25:55.305Z,1.30
2022-09-07T13:28:40.326Z,1.45
2022-09-07T13:31:37.068Z,1.27
2022-09-07T13:34:41.337Z,1.52
2022-09-07T13:37:18.964Z,1.00
2022-09-07T13:42:19.620Z,1.40
2022-09-07T13:44:55.536Z,1.30
2022-09-07T13:47:36.444Z,1.33
2022-09-07T13:50:28.557Z,1.25
2022-09-07T13:53:24.983Z,1.40
2022-09-07T13:55:58.059Z,1.42
2022-09-07T13:58:30.560Z,1.00
2022-09-07T14:01:01.410Z,2.03
2022-09-07T14:03:34.279Z,1.10
2022-09-07T14:06:29.960Z,1.20
2022-09-07T14:09:00.076Z,1.00
2022-09-07T14:11:30.058Z,1.23
2022-09-07T14:14:08.508Z,1.10
2022-09-07T14:16:37.610Z,1.25
2022-09-07T14:19:12.015Z,1.25
2022-09-07T14:21:41.497Z,1.30
2022-09-07T14:24:29.458Z,1.33
2022-09-07T14:26:57.768Z,1.00
2022-09-07T14:29:29.896Z,1.10
2022-09-07T14:31:58.786Z,1.02
2022-09-07T14:34:31.256Z,1.20
2022-09-07T14:37:04.786Z,1.30
2022-09-07T14:39:36.941Z,1.25
2022-09-07T14:42:05.522Z,1.60
2022-09-07T14:44:36.168Z,1.50
2022-09-07T14:47:12.506Z,1.42
2022-09-07T14:49:40.441Z,1.50
2022-09-07T14:52:19.072Z,1.20
2022-09-07T14:54:52.669Z,1.50
2022-09-07T14:57:38.600Z,1.48
2022-09-07T15:00:28.643Z,1.80
2022-09-07T15:02:56.498Z,1.55
2022-09-07T15:05:29.196Z,1.80
2022-09-07T15:07:59.795Z,1.92
2022-09-07T15:10:35.230Z,1.70
2022-09-07T15:13:05.074Z,1.70
2022-09-07T15:15:35.150Z,1.90
2022-09-07T15:18:08.760Z,1.83
2022-09-07T15:20:39.662Z,2.22
2022-09-07T15:23:12.159Z,1.92
2022-09-07T15:25:43.309Z,1.80
2022-09-07T15:34:00.143Z,1.98
2022-09-07T15:36:28.752Z,2.03
2022-09-07T15:39:00.047Z,1.67
2022-09-07T15:41:29.226Z,2.05
2022-09-07T15:43:57.133Z,2.13
2022-09-07T15:46:25.382Z,2.30
2022-09-07T15:48:55.625Z,2.30
2022-09-07T15:54:14.982Z,1.85
2022-09-07T15:57:47.501Z,1.60
2022-09-07T15:59:31.692Z,1.88
2022-09-07T16:01:59.837Z,2.10
2022-09-07T16:04:28.072Z,1.90
2022-09-07T16:06:55.995Z,2.35
2022-09-07T16:09:25.370Z,2.22
2022-09-07T16:11:54.039Z,1.90
2022-09-07T16:14:21.930Z,2.70
2022-09-07T16:19:40.937Z,1.80
2022-09-07T16:22:09.944Z,2.22
2022-09-07T16:24:39.161Z,2.03
2022-09-07T16:27:08.307Z,1.95
2022-09-07T16:29:36.596Z,2.97
2022-09-07T16:34:52.607Z,2.03
2022-09-07T16:37:20.493Z,2.10
2022-09-07T16:39:51.279Z,2.10
2022-09-07T16:42:19.233Z,1.98
2022-09-07T16:44:47.168Z,2.30
2022-09-07T16:47:15.018Z,1.90
2022-09-07T16:49:42.917Z,2.03
2022-09-07T16:52:11.053Z,2.40
2022-09-07T16:54:38.967Z,2.55
2022-09-07T16:57:08.178Z,2.22
2022-09-07T16:59:36.009Z,2.28
2022-09-07T17:02:04.278Z,1.98
2022-09-07T17:04:32.147Z,2.03
2022-09-07T17:07:00.033Z,2.20
2022-09-07T17:09:28.671Z,2.00
2022-09-07T17:11:56.679Z,2.08
2022-09-07T17:14:28.203Z,1.90
2022-09-07T17:16:56.073Z,2.28
2022-09-07T17:19:31.456Z,2.33
2022-09-07T17:22:00.216Z,2.10
2022-09-07T17:24:28.220Z,2.45
2022-09-07T17:26:56.731Z,2.38
2022-09-07T17:29:30.347Z,2.42
2022-09-07T17:34:47.122Z,2.33
2022-09-07T17:37:14.997Z,2.30
2022-09-07T17:39:42.906Z,2.13
2022-09-07T17:42:10.885Z,2.47
2022-09-07T17:44:40.105Z,2.63
2022-09-07T17:47:08.019Z,2.97
2022-09-07T17:49:35.881Z,2.78
2022-09-07T17:52:04.080Z,3.95
2022-09-07T17:54:32.796Z,3.75
2022-09-07T17:57:00.955Z,3.28
2022-09-07T18:02:17.986Z,3.90
2022-09-07T18:04:45.939Z,5.05
2022-09-07T18:07:13.862Z,4.30
2022-09-07T18:09:41.714Z,6.53
2022-09-07T18:12:09.633Z,5.72
2022-09-07T18:14:37.491Z,5.40
2022-09-07T18:17:06.032Z,5.38
2022-09-07T18:19:36.324Z,5.60
2022-09-07T18:22:04.587Z,5.95
2022-09-07T18:24:32.635Z,4.15
2022-09-07T18:27:01.175Z,4.43
2022-09-07T18:29:33.594Z,4.60
2022-09-07T18:32:04.809Z,4.60
2022-09-07T18:34:37.241Z,4.30
2022-09-07T18:37:05.481Z,4.10
2022-09-07T18:39:33.512Z,3.63
2022-09-07T18:42:01.427Z,4.03
2022-09-07T18:47:27.992Z,4.65
2022-09-07T18:49:58.747Z,4.65
2022-09-07T18:55:15.905Z,5.40
2022-09-07T18:57:43.791Z,4.60
2022-09-07T19:00:12.939Z,4.38
2022-09-07T19:02:40.810Z,3.25
2022-09-07T19:07:59.435Z,3.03
2022-09-07T19:10:27.458Z,2.92
2022-09-07T19:12:55.307Z,3.92
2022-09-07T19:15:23.713Z,3.10
2022-09-07T19:17:51.551Z,3.35
2022-09-07T19:20:20.751Z,3.25
2022-09-07T19:22:48.755Z,3.50
2022-09-07T19:25:17.271Z,4.20
2022-09-07T19:27:45.183Z,3.30
2022-09-07T19:30:13.826Z,3.30
2022-09-07T19:32:41.698Z,3.30
2022-09-07T19:35:10.452Z,3.30
2022-09-07T19:37:39.794Z,2.85
2022-09-07T19:40:13.531Z,3.42
2022-09-07T19:42:44.782Z,3.60
2022-09-07T19:45:12.619Z,3.70
2022-09-07T19:47:40.440Z,3.25
2022-09-07T19:50:08.991Z,3.08
2022-09-07T19:52:36.800Z,3.83
2022-09-07T19:55:06.865Z,2.92
2022-09-07T19:57:34.717Z,3.13
2022-09-07T20:00:02.788Z,3.67
2022-09-07T20:02:30.655Z,3.70
2022-09-07T20:04:58.731Z,3.65
2022-09-07T20:07:26.651Z,3.17
2022-09-07T20:09:54.458Z,3.63
2022-09-07T20:12:23.594Z,3.53
2022-09-07T20:14:51.556Z,3.38
2022-09-07T20:17:19.355Z,2.83
2022-09-07T20:19:47.216Z,3.33
2022-09-07T20:22:15.020Z,4.18
2022-09-07T20:24:43.721Z,3.05
2022-09-07T20:27:11.545Z,3.17
2022-09-07T20:29:40.966Z,2.97
2022-09-07T20:32:08.883Z,2.92
2022-09-07T20:34:37.531Z,2.75
2022-09-07T20:37:05.779Z,2.80
2022-09-07T20:39:38.361Z,2.90
2022-09-07T20:42:08.720Z,4.00
2022-09-07T20:44:36.860Z,2.80
2022-09-07T20:47:06.714Z,3.47
2022-09-07T20:49:34.576Z,2.88
2022-09-07T20:52:02.599Z,3.22
2022-09-07T20:54:30.445Z,3.28
2022-09-07T20:57:01.027Z,3.47
2022-09-07T20:59:31.621Z,3.42
2022-09-07T21:01:59.505Z,3.17
2022-09-07T21:04:28.710Z,3.75
2022-09-07T21:06:56.515Z,3.15
2022-09-07T21:09:24.626Z,4.20
2022-09-07T21:11:56.795Z,3.58
2022-09-07T21:14:25.275Z,4.13
2022-09-07T21:16:53.133Z,3.80
2022-09-07T21:19:21.129Z,3.60
2022-09-07T21:21:50.340Z,3.85
2022-09-07T21:24:19.857Z,3.70
2022-09-07T21:26:48.186Z,3.67
2022-09-07T21:29:18.653Z,3.42
2022-09-07T21:31:46.684Z,3.65
2022-09-07T21:34:15.503Z,4.53
2022-09-07T21:36:43.564Z,5.45
2022-09-07T21:39:14.613Z,5.28
2022-09-07T21:41:43.327Z,6.05
2022-09-07T21:44:13.646Z,4.65
2022-09-07T21:46:42.438Z,4.45
2022-09-07T21:49:10.454Z,5.10
2022-09-07T21:51:38.675Z,4.13
2022-09-07T21:54:06.862Z,4.28
2022-09-07T21:56:36.309Z,3.60
2022-09-07T21:59:04.668Z,3.90
2022-09-07T22:01:32.924Z,4.45
2022-09-07T22:04:02.828Z,3.70
2022-09-07T22:06:32.181Z,3.97
2022-09-07T22:09:00.708Z,4.30
2022-09-07T22:11:29.492Z,3.20
2022-09-07T22:14:01.740Z,3.17
2022-09-07T22:16:29.725Z,3.13
2022-09-07T22:18:57.616Z,3.55
2022-09-07T22:21:27.074Z,3.85
2022-09-07T22:23:57.535Z,3.70
2022-09-07T22:26:28.541Z,4.05
2022-09-07T22:28:58.760Z,3.95
2022-09-07T22:31:29.077Z,4.53
2022-09-07T22:33:57.951Z,3.85
2022-09-07T22:36:27.832Z,4.07
2022-09-07T22:38:57.211Z,4.22
2022-09-07T22:41:27.690Z,3.75
2022-09-07T22:43:56.052Z,4.05
2022-09-07T22:46:26.968Z,3.88
2022-09-07T22:48:56.140Z,4.22
2022-09-07T22:51:25.259Z,3.85
2022-09-07T22:53:53.503Z,4.13
2022-09-07T22:56:23.253Z,4.55
2022-09-07T22:58:52.753Z,4.38
2022-09-07T23:01:21.808Z,4.65
2022-09-07T23:03:51.527Z,4.35
2022-09-07T23:06:24.453Z,5.05
2022-09-07T23:08:53.859Z,5.07
2022-09-07T23:11:22.593Z,4.70
2022-09-07T23:13:51.948Z,5.03
2022-09-07T23:16:20.004Z,5.72
2022-09-07T23:18:48.254Z,5.05
2022-09-07T23:21:17.695Z,5.60
2022-09-07T23:23:49.366Z,5.40
2022-09-07T23:26:17.198Z,5.57
2022-09-07T23:28:45.039Z,5.75
2022-09-07T23:31:13.126Z,5.78
2022-09-07T23:33:40.988Z,5.95
2022-09-07T23:36:09.000Z,5.70
2022-09-07T23:38:38.170Z,6.00
2022-09-07T23:41:06.369Z,5.82
2022-09-07T23:43:34.488Z,5.65
2022-09-07T23:46:02.694Z,5.47
2022-09-07T23:48:30.560Z,5.88
2022-09-07T23:50:58.491Z,5.88
2022-09-07T23:53:26.755Z,5.75
2022-09-07T23:55:56.258Z,4.95
2022-09-07T23:58:24.694Z,5.03
